Terminal Aerodrome Forecast
Issued by NWS

Home | Current Version | Previous Version | Text Only | Print | Product List | Glossary On
Versions: 1 2 3 4 5 6 7 8 9 10 11 12 13 14 15 16 17
043
FTUS43 KPAH 272323
TAFCGI
TAF
KCGI 272323Z 2800/2824 21004KT P6SM SKC
     FM280600 00000KT P6SM BCFG SKC
     FM281400 30009KT P6SM SCT030 BKN080=

USA.gov is the U.S. government's official web portal to all federal, state and local government web resources and services.